createdAt,value
2024-02-19T00:00:26.936Z,30.37
2024-02-19T00:01:50.475Z,30.18
2024-02-19T00:03:13.600Z,30.13
2024-02-19T00:04:38.654Z,30.37
2024-02-19T00:06:01.337Z,31.00
2024-02-19T00:07:24.018Z,30.70
2024-02-19T00:08:47.150Z,30.12
2024-02-19T00:10:10.489Z,30.60
2024-02-19T00:11:33.561Z,31.60
2024-02-19T00:12:57.054Z,31.52
2024-02-19T00:14:20.382Z,31.65
2024-02-19T00:15:44.030Z,31.83
2024-02-19T00:17:06.550Z,31.15
2024-02-19T00:18:28.860Z,32.15
2024-02-19T00:19:50.053Z,33.03
2024-02-19T00:21:21.445Z,36.12
2024-02-19T00:22:42.523Z,34.00
2024-02-19T00:24:05.701Z,31.80
2024-02-19T00:25:27.996Z,30.98
2024-02-19T00:26:52.984Z,30.32
2024-02-19T00:28:15.813Z,28.90
2024-02-19T00:29:39.314Z,31.08
2024-02-19T00:31:01.337Z,31.35
2024-02-19T00:32:23.273Z,33.22
2024-02-19T00:33:46.573Z,32.30
2024-02-19T00:35:08.943Z,30.33
2024-02-19T00:36:30.559Z,30.58
2024-02-19T00:37:55.153Z,29.30
2024-02-19T00:39:20.609Z,27.98
2024-02-19T00:40:43.470Z,27.55
2024-02-19T00:42:04.976Z,28.33
2024-02-19T00:43:28.142Z,27.98
2024-02-19T00:44:50.880Z,27.55
2024-02-19T00:46:13.172Z,29.20
2024-02-19T00:47:35.128Z,27.97
2024-02-19T00:48:57.557Z,28.32
2024-02-19T00:50:20.695Z,28.58
2024-02-19T00:51:44.450Z,27.53
2024-02-19T00:53:06.850Z,28.52
2024-02-19T00:54:29.437Z,28.95
2024-02-19T00:55:59.214Z,29.77
2024-02-19T00:57:29.085Z,31.97
2024-02-19T00:58:52.288Z,32.77
2024-02-19T01:00:15.464Z,32.93
2024-02-19T01:01:36.927Z,31.98
2024-02-19T01:03:00.170Z,33.05
2024-02-19T01:04:23.076Z,32.20
2024-02-19T01:05:45.189Z,32.50
2024-02-19T01:07:07.962Z,32.12
2024-02-19T01:08:59.702Z,32.42
2024-02-19T01:10:30.141Z,32.67
2024-02-19T01:12:56.989Z,33.42
2024-02-19T01:15:09.381Z,33.33
2024-02-19T01:16:50.180Z,31.65
2024-02-19T01:18:16.510Z,33.73
2024-02-19T01:23:10.561Z,33.13
2024-02-19T01:24:33.210Z,34.50
2024-02-19T01:25:56.663Z,32.80
2024-02-19T01:27:19.080Z,33.22
2024-02-19T01:28:42.309Z,33.42
2024-02-19T01:30:05.848Z,34.72
2024-02-19T01:31:38.706Z,34.20
2024-02-19T01:33:12.452Z,33.23
2024-02-19T01:34:34.717Z,32.53
2024-02-19T01:35:57.831Z,34.15
2024-02-19T01:37:29.605Z,34.12
2024-02-19T01:38:56.313Z,34.45
2024-02-19T01:40:20.945Z,34.17
2024-02-19T01:41:43.914Z,33.52
2024-02-19T01:43:15.174Z,34.63
2024-02-19T01:44:41.156Z,34.50
2024-02-19T01:46:04.744Z,33.07
2024-02-19T01:47:27.846Z,33.40
2024-02-19T01:48:50.524Z,34.27
2024-02-19T01:50:28.235Z,33.58
2024-02-19T01:51:57.515Z,33.88
2024-02-19T01:53:35.024Z,33.77
2024-02-19T01:55:35.552Z,34.67
2024-02-19T01:56:58.984Z,36.13
2024-02-19T01:58:21.184Z,34.57
2024-02-19T01:59:54.016Z,34.37
2024-02-19T02:01:21.233Z,34.37
2024-02-19T02:02:43.270Z,34.23
2024-02-19T02:04:08.354Z,34.25
2024-02-19T02:05:31.552Z,34.05
2024-02-19T02:06:55.014Z,32.38
2024-02-19T02:08:18.310Z,33.75
2024-02-19T02:09:41.750Z,34.13
2024-02-19T02:11:05.844Z,33.93
2024-02-19T02:12:29.145Z,34.90
2024-02-19T02:15:55.503Z,34.15
2024-02-19T02:17:16.640Z,34.03
2024-02-19T02:18:40.044Z,33.70
2024-02-19T02:20:05.766Z,33.92
2024-02-19T02:21:52.228Z,33.72
2024-02-19T02:24:07.382Z,34.70
2024-02-19T02:26:45.641Z,34.38
2024-02-19T02:28:23.921Z,34.07
2024-02-19T02:29:49.416Z,35.60
2024-02-19T02:31:18.153Z,36.15
2024-02-19T02:32:41.262Z,35.05
2024-02-19T02:34:38.499Z,34.08
2024-02-19T02:36:11.478Z,36.65
2024-02-19T02:37:52.751Z,34.10
2024-02-19T02:39:18.007Z,35.67
2024-02-19T02:41:22.279Z,35.82
2024-02-19T02:42:45.769Z,35.40
2024-02-19T02:44:09.429Z,35.55
2024-02-19T02:46:29.970Z,35.17
2024-02-19T02:47:50.511Z,37.02
2024-02-19T02:49:13.260Z,36.88
2024-02-19T02:50:38.175Z,37.62
2024-02-19T02:52:12.101Z,36.93
2024-02-19T02:53:41.152Z,38.30
2024-02-19T02:55:17.495Z,39.25
2024-02-19T02:57:03.297Z,37.12
2024-02-19T02:58:28.231Z,37.33
2024-02-19T02:59:55.571Z,36.03
2024-02-19T03:02:17.795Z,35.33
2024-02-19T03:03:40.562Z,38.42
2024-02-19T03:05:05.534Z,39.18
2024-02-19T03:06:27.483Z,39.15
2024-02-19T03:08:04.273Z,40.52
2024-02-19T03:09:33.114Z,43.12
2024-02-19T03:11:13.814Z,40.62
2024-02-19T03:12:46.222Z,39.43
2024-02-19T03:14:12.197Z,39.28
2024-02-19T03:15:34.770Z,39.00
2024-02-19T03:17:12.419Z,40.40
2024-02-19T03:18:44.994Z,42.35
2024-02-19T03:20:18.635Z,45.02
2024-02-19T03:22:40.763Z,52.72
2024-02-19T03:24:02.221Z,50.32
2024-02-19T03:26:01.745Z,50.58
2024-02-19T03:30:42.278Z,48.42
2024-02-19T03:32:06.638Z,61.62
2024-02-19T03:36:14.585Z,59.20
2024-02-19T03:37:48.699Z,56.17
2024-02-19T03:39:46.460Z,52.57
2024-02-19T03:41:16.495Z,50.27
2024-02-19T03:43:01.376Z,47.27
2024-02-19T03:46:58.167Z,49.32
2024-02-19T03:48:46.497Z,48.68
2024-02-19T03:50:34.352Z,53.55
2024-02-19T03:52:00.778Z,56.78
2024-02-19T03:53:45.946Z,52.83
2024-02-19T03:55:16.320Z,52.00
2024-02-19T03:57:12.272Z,53.58
2024-02-19T03:58:39.850Z,51.58
2024-02-19T04:00:06.431Z,50.72
2024-02-19T04:01:35.525Z,48.58
2024-02-19T04:03:01.926Z,49.28
2024-02-19T04:04:23.833Z,47.05
2024-02-19T04:05:46.380Z,46.12
2024-02-19T04:07:08.577Z,46.65
2024-02-19T04:08:46.703Z,44.72
2024-02-19T04:10:19.620Z,46.65
2024-02-19T04:11:41.891Z,45.63
2024-02-19T04:13:47.369Z,45.25
2024-02-19T04:15:11.330Z,45.25
2024-02-19T04:16:37.935Z,43.50
2024-02-19T04:18:01.878Z,46.18
2024-02-19T04:19:27.730Z,44.15
2024-02-19T04:20:50.358Z,43.98
2024-02-19T04:22:12.973Z,47.20
2024-02-19T04:23:34.898Z,46.58
2024-02-19T04:24:57.229Z,47.32
2024-02-19T04:26:27.198Z,46.18
2024-02-19T04:27:51.372Z,43.93
2024-02-19T04:29:14.084Z,44.07
2024-02-19T04:32:22.672Z,41.98
2024-02-19T04:34:12.345Z,42.13
2024-02-19T04:35:51.008Z,42.15
2024-02-19T04:37:35.674Z,43.58
2024-02-19T04:38:57.084Z,44.40
2024-02-19T04:40:35.947Z,45.40
2024-02-19T04:42:41.222Z,45.70
2024-02-19T04:47:18.536Z,68.72
2024-02-19T04:49:04.703Z,66.32
2024-02-19T04:50:56.174Z,61.05
2024-02-19T04:52:24.095Z,58.28
2024-02-19T04:53:49.500Z,58.40
2024-02-19T04:55:14.967Z,54.08
2024-02-19T04:56:46.441Z,55.42
2024-02-19T04:58:10.988Z,56.93
2024-02-19T05:00:05.563Z,58.27
2024-02-19T05:01:59.343Z,56.80
2024-02-19T05:03:33.789Z,58.83
2024-02-19T05:05:02.475Z,55.48
2024-02-19T05:06:36.307Z,52.27
2024-02-19T05:08:38.488Z,51.50
2024-02-19T05:11:03.470Z,50.62
2024-02-19T05:12:26.027Z,48.22
2024-02-19T05:13:49.260Z,46.22
2024-02-19T05:15:26.102Z,44.47
2024-02-19T05:17:26.704Z,51.27
2024-02-19T05:18:49.201Z,84.48
2024-02-19T05:20:17.313Z,75.42
2024-02-19T05:22:02.660Z,72.43
2024-02-19T05:23:31.394Z,67.85
2024-02-19T05:25:00.776Z,66.50
2024-02-19T05:26:36.297Z,69.48
2024-02-19T05:28:24.828Z,79.17
2024-02-19T05:30:22.769Z,87.40
2024-02-19T05:31:57.955Z,72.40
2024-02-19T05:33:43.536Z,66.25
2024-02-19T05:35:47.505Z,53.80
2024-02-19T05:37:36.244Z,48.05
2024-02-19T05:39:19.392Z,44.80
2024-02-19T05:40:42.184Z,43.60
2024-02-19T05:42:04.959Z,47.35
2024-02-19T05:44:16.467Z,46.52
2024-02-19T05:46:11.305Z,44.13
2024-02-19T05:47:48.681Z,41.10
2024-02-19T05:54:32.515Z,41.05
2024-02-19T05:55:54.510Z,40.98
2024-02-19T05:57:20.421Z,39.35
2024-02-19T06:00:54.898Z,38.22
2024-02-19T06:02:23.886Z,37.58
2024-02-19T06:03:46.655Z,36.42
2024-02-19T06:05:09.962Z,36.63
2024-02-19T06:06:34.870Z,36.25
2024-02-19T06:07:58.677Z,35.37
2024-02-19T06:09:23.159Z,36.18
2024-02-19T06:10:59.597Z,36.70
2024-02-19T06:12:22.977Z,38.63
2024-02-19T06:13:50.254Z,39.45
2024-02-19T06:15:13.207Z,53.25
2024-02-19T06:16:40.893Z,63.05
2024-02-19T06:18:41.492Z,60.32
2024-02-19T06:20:06.039Z,54.13
2024-02-19T06:22:14.665Z,54.78
2024-02-19T06:28:11.521Z,42.85
2024-02-19T06:29:57.744Z,42.73
2024-02-19T06:31:19.809Z,43.63
2024-02-19T06:33:19.812Z,40.93
2024-02-19T06:34:45.139Z,41.18
2024-02-19T06:36:14.404Z,42.70
2024-02-19T06:38:38.851Z,40.98
2024-02-19T06:40:09.081Z,42.47
2024-02-19T06:41:33.523Z,43.60
2024-02-19T06:42:56.923Z,44.18
2024-02-19T06:44:24.049Z,44.97
2024-02-19T06:45:47.636Z,44.38
2024-02-19T06:47:10.852Z,42.63
2024-02-19T06:48:32.780Z,43.73
2024-02-19T06:50:38.291Z,46.48
2024-02-19T06:52:09.741Z,46.07
2024-02-19T06:53:34.086Z,45.47
2024-02-19T06:54:56.905Z,46.28
2024-02-19T06:56:19.886Z,44.67
2024-02-19T06:57:42.960Z,43.42
2024-02-19T06:59:05.507Z,44.67
2024-02-19T07:00:29.109Z,45.23
2024-02-19T07:01:52.182Z,45.82
2024-02-19T07:03:15.357Z,44.55
2024-02-19T07:04:39.113Z,44.70
2024-02-19T07:06:02.601Z,43.67
2024-02-19T07:07:26.285Z,43.70
2024-02-19T07:08:48.404Z,43.88
2024-02-19T07:10:12.182Z,41.87
2024-02-19T07:11:39.414Z,41.43
2024-02-19T07:13:00.496Z,44.82
2024-02-19T07:14:22.405Z,43.17
2024-02-19T07:15:46.100Z,45.03
2024-02-19T07:17:08.922Z,44.18
2024-02-19T07:18:33.239Z,42.33
2024-02-19T07:19:56.157Z,41.13
2024-02-19T07:21:21.823Z,41.18
2024-02-19T07:22:47.301Z,42.07
2024-02-19T07:24:10.543Z,40.50
2024-02-19T07:25:33.553Z,40.13
2024-02-19T07:26:56.132Z,37.38
2024-02-19T07:28:21.086Z,36.95
2024-02-19T07:29:59.574Z,35.85
2024-02-19T07:31:49.140Z,36.63
2024-02-19T07:33:28.295Z,38.08
2024-02-19T07:35:14.201Z,36.45
2024-02-19T07:36:56.499Z,36.62
2024-02-19T07:38:21.752Z,36.47
2024-02-19T07:39:50.901Z,35.90
2024-02-19T07:41:23.496Z,36.47
2024-02-19T07:42:47.799Z,35.28
2024-02-19T07:44:29.605Z,35.80
2024-02-19T07:45:54.940Z,36.87
2024-02-19T07:47:25.073Z,38.98
2024-02-19T07:49:09.728Z,38.98
2024-02-19T07:50:46.795Z,38.77
2024-02-19T07:52:17.955Z,37.92
2024-02-19T07:54:07.596Z,38.17
2024-02-19T07:56:20.333Z,38.67
2024-02-19T07:57:56.536Z,38.58
2024-02-19T07:59:47.658Z,40.78
2024-02-19T08:01:34.155Z,44.87
2024-02-19T08:03:40.822Z,50.28
2024-02-19T08:05:55.950Z,58.68
2024-02-19T08:07:21.810Z,59.00
2024-02-19T08:08:56.792Z,46.92
2024-02-19T08:15:15.033Z,42.07
2024-02-19T08:16:47.550Z,45.93
2024-02-19T08:19:26.896Z,40.82
2024-02-19T08:21:07.945Z,38.25
2024-02-19T08:25:00.961Z,42.97
2024-02-19T08:26:51.592Z,39.13
2024-02-19T08:28:41.602Z,35.70
2024-02-19T08:30:22.504Z,34.62
2024-02-19T08:31:54.695Z,33.27
2024-02-19T08:33:47.606Z,34.82
2024-02-19T08:35:11.246Z,37.22
2024-02-19T08:36:36.209Z,37.55
2024-02-19T08:38:01.486Z,34.98
2024-02-19T08:39:24.213Z,38.05
2024-02-19T08:40:50.729Z,64.67
2024-02-19T08:43:00.650Z,40.10
2024-02-19T08:44:29.241Z,28.77
2024-02-19T08:46:00.582Z,28.27
2024-02-19T08:47:25.074Z,28.32
2024-02-19T08:48:48.671Z,27.10
2024-02-19T08:50:53.935Z,27.15
2024-02-19T08:52:16.518Z,27.63
2024-02-19T08:53:39.820Z,26.95
2024-02-19T08:55:02.386Z,27.15
2024-02-19T08:56:25.368Z,26.25
2024-02-19T08:57:48.022Z,26.35
2024-02-19T08:59:13.853Z,25.95
2024-02-19T09:00:38.151Z,26.38
2024-02-19T09:02:00.758Z,26.58
2024-02-19T09:03:22.145Z,27.18
2024-02-19T09:04:49.548Z,27.37
2024-02-19T09:06:12.408Z,29.05
2024-02-19T09:07:36.792Z,29.20
2024-02-19T09:09:01.565Z,30.00
2024-02-19T09:10:24.428Z,30.10
2024-02-19T09:11:47.925Z,29.65
2024-02-19T09:13:11.881Z,27.67
2024-02-19T09:14:34.199Z,27.27
2024-02-19T09:15:57.175Z,27.37
2024-02-19T09:17:20.440Z,27.43
2024-02-19T09:18:49.709Z,27.47
2024-02-19T09:20:13.037Z,26.25
2024-02-19T09:21:35.254Z,25.30
2024-02-19T09:22:58.025Z,26.62
2024-02-19T09:24:20.943Z,27.82
2024-02-19T09:25:47.747Z,27.08
2024-02-19T09:27:09.496Z,26.32
2024-02-19T09:28:33.068Z,25.83
2024-02-19T09:31:07.915Z,24.88
2024-02-19T09:32:34.283Z,26.87
2024-02-19T09:33:59.153Z,27.83
2024-02-19T09:36:52.865Z,27.23
2024-02-19T09:38:23.856Z,23.87
2024-02-19T09:40:17.630Z,23.75
2024-02-19T09:42:37.073Z,24.73
2024-02-19T09:44:02.587Z,24.85
2024-02-19T09:45:27.736Z,26.28
2024-02-19T09:46:53.274Z,25.98
2024-02-19T09:48:21.429Z,23.90
2024-02-19T09:49:44.616Z,23.27
2024-02-19T09:51:37.184Z,24.48
2024-02-19T09:53:12.902Z,25.22
2024-02-19T09:54:35.729Z,24.97
2024-02-19T09:55:59.990Z,23.28
2024-02-19T09:57:24.750Z,24.15
2024-02-19T09:58:48.810Z,22.53
2024-02-19T10:00:13.097Z,22.87
2024-02-19T10:01:35.784Z,23.22
2024-02-19T10:02:59.333Z,21.72
2024-02-19T10:04:23.913Z,21.28
2024-02-19T10:05:49.098Z,22.73
2024-02-19T10:07:14.849Z,21.70
2024-02-19T10:08:38.225Z,22.88
2024-02-19T10:10:05.551Z,22.15
2024-02-19T10:11:35.340Z,20.05
2024-02-19T10:12:57.994Z,20.40
2024-02-19T10:14:20.044Z,20.77
2024-02-19T10:15:41.809Z,21.50
2024-02-19T10:17:05.108Z,22.62
2024-02-19T10:18:28.335Z,22.32
2024-02-19T10:20:07.558Z,23.88
2024-02-19T10:21:31.899Z,22.05
2024-02-19T10:22:55.229Z,23.18
2024-02-19T10:24:20.990Z,22.32
2024-02-19T10:25:43.739Z,22.98
2024-02-19T10:27:06.916Z,23.03
2024-02-19T10:28:33.556Z,24.55
2024-02-19T10:29:56.175Z,25.02
2024-02-19T10:31:18.322Z,24.62
2024-02-19T10:32:43.215Z,24.88
2024-02-19T10:34:06.765Z,24.93
2024-02-19T10:35:30.916Z,24.17
2024-02-19T10:36:53.061Z,22.98
2024-02-19T10:38:18.318Z,26.10
2024-02-19T10:39:41.497Z,24.73
2024-02-19T10:41:02.296Z,24.08
2024-02-19T10:42:25.532Z,24.43
2024-02-19T10:43:47.811Z,23.85
2024-02-19T10:45:12.922Z,23.47
2024-02-19T10:46:36.681Z,25.87
2024-02-19T10:48:01.868Z,25.78
2024-02-19T10:49:26.334Z,27.67
2024-02-19T10:50:52.341Z,25.97
2024-02-19T10:52:14.065Z,25.63
2024-02-19T10:53:37.446Z,26.78
2024-02-19T10:55:09.683Z,27.98
2024-02-19T10:56:40.469Z,27.18
2024-02-19T10:58:05.325Z,27.40
2024-02-19T10:59:31.335Z,25.63
2024-02-19T11:00:56.375Z,23.53
2024-02-19T11:02:22.859Z,24.07
2024-02-19T11:03:48.006Z,25.48
2024-02-19T11:05:13.609Z,21.73
2024-02-19T11:06:42.115Z,22.78
2024-02-19T11:08:04.791Z,20.80
2024-02-19T11:09:37.503Z,21.90
2024-02-19T11:11:00.686Z,22.20
2024-02-19T11:12:24.422Z,21.50
2024-02-19T11:13:49.535Z,22.98
2024-02-19T11:15:19.156Z,25.33
2024-02-19T11:17:01.873Z,24.62
2024-02-19T11:18:33.661Z,24.05
2024-02-19T11:19:56.533Z,24.88
2024-02-19T11:21:22.139Z,21.80
2024-02-19T11:22:45.155Z,22.28
2024-02-19T11:24:12.572Z,20.73
2024-02-19T11:25:46.535Z,21.92
2024-02-19T11:27:10.588Z,23.38
2024-02-19T11:28:38.554Z,22.10
2024-02-19T11:30:03.036Z,22.68
2024-02-19T11:31:36.974Z,23.03
2024-02-19T11:33:14.279Z,21.47
2024-02-19T11:34:37.593Z,20.27
2024-02-19T11:36:04.078Z,21.85
2024-02-19T11:37:29.051Z,22.12
2024-02-19T11:38:52.439Z,20.12
2024-02-19T11:40:19.233Z,19.23
2024-02-19T11:42:05.927Z,19.33
2024-02-19T11:43:31.459Z,22.38
2024-02-19T11:44:58.046Z,23.88
2024-02-19T11:46:22.673Z,20.57
2024-02-19T11:47:46.046Z,19.53
2024-02-19T11:49:10.342Z,18.75
2024-02-19T11:50:33.488Z,19.02
2024-02-19T11:52:04.390Z,21.30
2024-02-19T11:53:31.664Z,22.52
2024-02-19T11:55:03.129Z,24.52
2024-02-19T11:56:25.680Z,23.32
2024-02-19T11:57:51.313Z,23.27
2024-02-19T11:59:16.249Z,23.80
2024-02-19T12:00:41.283Z,23.32
2024-02-19T12:02:07.411Z,23.68
2024-02-19T12:03:31.744Z,21.25
2024-02-19T12:04:55.304Z,22.10
2024-02-19T12:06:18.697Z,21.45
2024-02-19T12:07:41.244Z,22.23
2024-02-19T12:09:04.108Z,20.85
2024-02-19T12:10:29.723Z,18.78
2024-02-19T12:11:52.047Z,19.32
2024-02-19T12:13:15.597Z,17.93
2024-02-19T12:14:39.467Z,18.15
2024-02-19T12:16:03.582Z,17.77
2024-02-19T12:17:28.155Z,18.60
2024-02-19T12:18:53.196Z,18.00
2024-02-19T12:20:16.119Z,18.40
2024-02-19T12:21:38.147Z,18.88
2024-02-19T12:23:01.575Z,19.80
2024-02-19T12:24:26.046Z,21.30
2024-02-19T12:25:50.420Z,23.18
2024-02-19T12:27:12.888Z,22.80
2024-02-19T12:28:35.183Z,23.30
2024-02-19T12:29:58.458Z,20.15
2024-02-19T12:31:21.994Z,19.97
2024-02-19T12:32:48.065Z,21.55
2024-02-19T12:34:10.743Z,18.90
2024-02-19T12:35:34.156Z,18.50
2024-02-19T12:36:56.594Z,19.73
2024-02-19T12:38:18.604Z,18.48
2024-02-19T12:39:51.086Z,19.03
2024-02-19T12:41:19.281Z,20.02
2024-02-19T12:42:43.337Z,21.43
2024-02-19T12:44:05.945Z,20.57
2024-02-19T12:45:28.844Z,21.18
2024-02-19T12:46:52.805Z,22.17
2024-02-19T12:48:16.635Z,20.73
2024-02-19T12:49:40.814Z,20.60
2024-02-19T12:51:08.301Z,21.00
2024-02-19T12:52:31.739Z,22.97
2024-02-19T12:53:56.541Z,24.52
2024-02-19T12:55:19.890Z,22.92
2024-02-19T12:56:44.190Z,23.93
2024-02-19T12:58:07.109Z,23.47
2024-02-19T12:59:31.020Z,26.82
2024-02-19T13:00:54.505Z,22.33
2024-02-19T13:02:18.439Z,20.45
2024-02-19T13:03:42.416Z,20.08
2024-02-19T13:05:07.857Z,20.82
2024-02-19T13:06:30.450Z,21.27
2024-02-19T13:07:56.335Z,19.05
2024-02-19T13:09:20.620Z,18.73
2024-02-19T13:10:46.215Z,18.93
2024-02-19T13:12:11.377Z,18.57
2024-02-19T13:13:34.770Z,18.73
2024-02-19T13:15:04.224Z,21.68
2024-02-19T13:16:58.427Z,20.43
2024-02-19T13:18:42.168Z,19.67
2024-02-19T13:22:42.776Z,19.87
2024-02-19T13:24:19.681Z,19.98
2024-02-19T13:25:46.224Z,20.80
2024-02-19T13:27:17.412Z,20.37
2024-02-19T13:28:39.545Z,20.37
2024-02-19T13:30:03.272Z,20.72
2024-02-19T13:31:38.373Z,21.40
2024-02-19T13:33:09.507Z,20.33
2024-02-19T13:34:35.265Z,20.25
2024-02-19T13:36:06.733Z,20.02
2024-02-19T13:37:30.535Z,20.62
2024-02-19T13:38:54.379Z,20.33
2024-02-19T13:40:19.197Z,20.28
2024-02-19T13:41:44.354Z,25.18
2024-02-19T13:43:06.974Z,37.50
2024-02-19T13:44:31.547Z,26.70
2024-02-19T13:46:01.686Z,28.58
2024-02-19T13:47:25.084Z,26.85
2024-02-19T13:49:02.422Z,23.97
2024-02-19T13:50:25.765Z,21.52
2024-02-19T13:51:48.685Z,20.83
2024-02-19T13:53:16.990Z,22.12
2024-02-19T13:54:40.554Z,21.82
2024-02-19T13:56:05.574Z,21.73
2024-02-19T13:57:27.078Z,22.48
2024-02-19T13:58:50.837Z,22.40
2024-02-19T14:00:14.316Z,21.70
2024-02-19T14:01:40.363Z,21.58
2024-02-19T14:03:04.959Z,22.07
2024-02-19T14:04:27.605Z,21.45
2024-02-19T14:05:51.878Z,21.42
2024-02-19T14:07:16.435Z,21.10
2024-02-19T14:08:41.417Z,21.37
2024-02-19T14:10:07.220Z,22.05
2024-02-19T14:11:41.277Z,21.05
2024-02-19T14:13:04.985Z,21.68
2024-02-19T14:14:28.317Z,21.70
2024-02-19T14:15:50.109Z,21.73
2024-02-19T14:17:14.801Z,21.58
2024-02-19T14:18:38.322Z,21.77
2024-02-19T14:20:02.132Z,23.23
2024-02-19T14:21:49.138Z,22.35
2024-02-19T14:23:13.851Z,22.77
2024-02-19T14:24:43.013Z,22.58
2024-02-19T14:26:25.674Z,21.40
2024-02-19T14:27:51.015Z,21.65
2024-02-19T14:29:20.783Z,21.73
2024-02-19T14:30:44.220Z,20.92
2024-02-19T14:32:22.086Z,22.08
2024-02-19T14:33:46.900Z,22.78
2024-02-19T14:35:12.548Z,21.43
2024-02-19T14:36:40.793Z,21.70
2024-02-19T14:38:18.980Z,20.78
2024-02-19T14:39:49.767Z,21.50
2024-02-19T14:41:17.651Z,21.23
2024-02-19T14:42:41.547Z,20.72
2024-02-19T14:44:07.409Z,20.67
2024-02-19T14:45:33.479Z,20.88
2024-02-19T14:47:02.315Z,20.15
2024-02-19T14:48:29.332Z,20.55
2024-02-19T14:49:52.655Z,23.15
2024-02-19T14:51:23.390Z,24.80
2024-02-19T14:52:47.536Z,28.38
2024-02-19T14:54:12.640Z,28.38
2024-02-19T14:55:36.562Z,24.50
2024-02-19T14:57:01.975Z,22.48
2024-02-19T14:58:30.446Z,21.32
2024-02-19T15:00:05.139Z,20.58
2024-02-19T15:01:39.900Z,18.50
2024-02-19T15:03:03.030Z,20.45
2024-02-19T15:04:57.170Z,19.30
2024-02-19T15:06:20.215Z,19.48
2024-02-19T15:07:46.639Z,19.82
2024-02-19T15:09:25.025Z,18.32
2024-02-19T15:10:54.500Z,17.98
2024-02-19T15:12:19.926Z,17.50
2024-02-19T15:14:08.918Z,18.60
2024-02-19T15:15:47.221Z,20.02
2024-02-19T15:17:18.976Z,22.65
2024-02-19T15:18:42.081Z,25.42
2024-02-19T15:20:05.359Z,27.00
2024-02-19T15:21:28.167Z,31.87
2024-02-19T15:23:15.053Z,36.37
2024-02-19T15:24:39.780Z,46.02
2024-02-19T15:26:24.162Z,48.15
2024-02-19T15:27:56.352Z,46.10
2024-02-19T15:29:21.997Z,53.78
2024-02-19T15:31:04.648Z,59.23
2024-02-19T15:32:28.575Z,55.25
2024-02-19T15:34:36.888Z,45.83
2024-02-19T15:38:05.902Z,37.15
2024-02-19T15:39:26.318Z,35.63
2024-02-19T15:40:53.725Z,28.77
2024-02-19T15:42:18.970Z,30.52
2024-02-19T15:43:43.028Z,26.15
2024-02-19T15:45:14.937Z,27.98
2024-02-19T15:46:41.518Z,30.15
2024-02-19T15:48:02.320Z,31.45
2024-02-19T15:49:26.430Z,33.33
2024-02-19T15:50:55.534Z,30.75
2024-02-19T15:52:19.662Z,34.25
2024-02-19T15:53:47.789Z,32.83
2024-02-19T15:55:22.954Z,38.27
2024-02-19T15:56:46.690Z,31.58
2024-02-19T15:58:10.316Z,27.45
2024-02-19T15:59:32.563Z,27.35
2024-02-19T16:00:55.219Z,26.25
2024-02-19T16:02:20.073Z,24.42
2024-02-19T16:03:43.611Z,23.67
2024-02-19T16:05:08.429Z,21.52
2024-02-19T16:06:33.298Z,22.58
2024-02-19T16:07:59.341Z,21.20
2024-02-19T16:09:24.339Z,20.57
2024-02-19T16:11:10.806Z,21.02
2024-02-19T16:12:37.766Z,20.05
2024-02-19T16:14:01.753Z,20.03
2024-02-19T16:15:28.185Z,21.40
2024-02-19T16:17:06.768Z,23.92
2024-02-19T16:18:27.835Z,35.83
2024-02-19T16:19:55.186Z,38.32
2024-02-19T16:21:18.278Z,47.45
2024-02-19T16:22:58.968Z,49.68
2024-02-19T16:24:29.992Z,45.17
2024-02-19T16:27:58.741Z,71.72
2024-02-19T16:29:28.246Z,107.87
2024-02-19T16:30:56.995Z,177.22
2024-02-19T16:32:23.006Z,127.63
2024-02-19T16:34:48.992Z,151.15
2024-02-19T16:36:26.353Z,375.75
2024-02-19T16:37:50.278Z,329.60
2024-02-19T16:39:13.589Z,205.87
2024-02-19T16:40:39.396Z,239.13
2024-02-19T16:42:06.372Z,214.97
2024-02-19T16:43:29.006Z,192.87
2024-02-19T16:44:50.889Z,366.47
2024-02-19T16:46:14.791Z,147.58
2024-02-19T16:47:37.705Z,274.67
2024-02-19T16:48:59.971Z,191.70
2024-02-19T16:50:23.668Z,68.12
2024-02-19T16:51:46.036Z,75.28
2024-02-19T16:53:09.063Z,51.97
2024-02-19T16:54:31.626Z,39.88
2024-02-19T16:55:54.442Z,69.07
2024-02-19T16:57:16.926Z,54.15
2024-02-19T16:58:38.692Z,45.48
2024-02-19T17:00:00.845Z,55.03
2024-02-19T17:01:23.723Z,37.03
2024-02-19T17:02:46.544Z,35.15
2024-02-19T17:04:10.098Z,30.50
2024-02-19T17:05:33.859Z,42.75
2024-02-19T17:06:56.736Z,52.38
2024-02-19T17:08:19.394Z,132.02
2024-02-19T17:09:43.792Z,34.47
2024-02-19T17:11:06.013Z,77.65
2024-02-19T17:12:31.913Z,37.48
2024-02-19T17:13:55.210Z,59.90
2024-02-19T17:15:17.480Z,32.55
2024-02-19T17:16:40.056Z,44.30
2024-02-19T17:18:04.241Z,62.50
2024-02-19T17:19:28.516Z,81.28
2024-02-19T17:20:51.012Z,177.87
2024-02-19T17:22:15.115Z,49.18
2024-02-19T17:23:38.309Z,36.02
2024-02-19T17:25:00.812Z,32.35
2024-02-19T17:26:23.811Z,66.33
2024-02-19T17:27:46.829Z,34.57
2024-02-19T17:29:09.853Z,46.22
2024-02-19T17:30:31.846Z,34.77
2024-02-19T17:31:54.383Z,35.00
2024-02-19T17:33:17.169Z,32.90
2024-02-19T17:34:44.199Z,35.22
2024-02-19T17:36:06.990Z,33.85
2024-02-19T17:37:31.032Z,36.82
2024-02-19T17:38:54.378Z,41.10
2024-02-19T17:40:16.924Z,82.45
2024-02-19T17:41:38.396Z,76.85
2024-02-19T17:43:01.277Z,48.62
2024-02-19T17:44:26.176Z,33.33
2024-02-19T17:45:49.790Z,32.58
2024-02-19T17:47:10.776Z,36.83
2024-02-19T17:48:31.576Z,36.25
2024-02-19T17:49:56.244Z,31.83
2024-02-19T17:51:23.616Z,38.47
2024-02-19T17:52:48.114Z,42.13
2024-02-19T17:54:12.321Z,44.45
2024-02-19T17:55:57.824Z,36.23
2024-02-19T17:57:21.717Z,48.63
2024-02-19T17:58:57.417Z,34.90
2024-02-19T18:00:20.490Z,47.02
2024-02-19T18:01:45.638Z,119.67
2024-02-19T18:03:07.319Z,120.78
2024-02-19T18:04:28.885Z,126.18
2024-02-19T18:05:51.957Z,138.42
2024-02-19T18:07:13.304Z,192.87
2024-02-19T18:08:38.515Z,124.85
2024-02-19T18:10:05.919Z,175.93
2024-02-19T18:11:33.961Z,206.45
2024-02-19T18:12:56.485Z,118.85
2024-02-19T18:14:19.116Z,44.73
2024-02-19T18:15:42.054Z,81.27
2024-02-19T18:17:03.281Z,45.43
2024-02-19T18:18:26.150Z,49.18
2024-02-19T18:19:49.585Z,57.62
2024-02-19T18:21:12.080Z,73.60
2024-02-19T18:22:35.417Z,58.13
2024-02-19T18:23:59.628Z,71.03
2024-02-19T18:25:21.817Z,36.93
2024-02-19T18:26:43.443Z,50.92
2024-02-19T18:28:07.184Z,81.57
2024-02-19T18:29:35.393Z,49.07
2024-02-19T18:30:58.247Z,74.17
2024-02-19T18:32:22.133Z,85.22
2024-02-19T18:33:45.656Z,103.78
2024-02-19T18:35:09.097Z,68.12
2024-02-19T18:36:31.241Z,96.58
2024-02-19T18:37:55.268Z,104.60
2024-02-19T18:39:16.720Z,106.47
2024-02-19T18:40:40.288Z,141.90
2024-02-19T18:42:02.690Z,96.60
2024-02-19T18:43:27.209Z,153.17
2024-02-19T18:44:51.131Z,153.47
2024-02-19T18:46:12.879Z,89.35
2024-02-19T18:47:36.084Z,75.08
2024-02-19T18:48:59.940Z,116.03
2024-02-19T18:50:23.075Z,140.15
2024-02-19T18:51:48.046Z,129.97
2024-02-19T18:53:10.886Z,64.72
2024-02-19T18:54:38.103Z,90.08
2024-02-19T18:56:02.947Z,214.88
2024-02-19T18:57:26.334Z,104.77
2024-02-19T18:58:51.453Z,89.22
2024-02-19T19:00:18.414Z,152.90
2024-02-19T19:01:41.129Z,272.57
2024-02-19T19:03:04.217Z,161.92
2024-02-19T19:04:27.016Z,314.80
2024-02-19T19:05:49.605Z,172.32
2024-02-19T19:07:11.887Z,111.32
2024-02-19T19:08:34.729Z,61.65
2024-02-19T19:09:59.743Z,90.75
2024-02-19T19:11:23.938Z,197.85
2024-02-19T19:12:47.716Z,137.33
2024-02-19T19:14:12.734Z,102.37
2024-02-19T19:15:43.333Z,170.53
2024-02-19T19:17:12.348Z,127.57
2024-02-19T19:18:35.599Z,158.98
2024-02-19T19:19:57.692Z,152.77
2024-02-19T19:21:23.369Z,116.57
2024-02-19T19:22:49.338Z,164.30
2024-02-19T19:24:11.254Z,175.77
2024-02-19T19:25:34.387Z,146.27
2024-02-19T19:26:56.895Z,212.77
2024-02-19T19:28:19.764Z,105.57
2024-02-19T19:29:42.553Z,195.77
2024-02-19T19:31:06.505Z,118.83
2024-02-19T19:32:30.842Z,166.55
2024-02-19T19:33:54.714Z,163.15
2024-02-19T19:35:18.504Z,129.28
2024-02-19T19:36:46.458Z,238.88
2024-02-19T19:38:08.266Z,204.58
2024-02-19T19:39:29.397Z,186.67
2024-02-19T19:40:51.806Z,93.52
2024-02-19T19:42:15.296Z,118.20
2024-02-19T19:43:41.147Z,186.42
2024-02-19T19:45:05.360Z,167.60
2024-02-19T19:46:30.643Z,180.50
2024-02-19T19:47:54.516Z,229.18
2024-02-19T19:49:21.798Z,134.47